sensor_id;sensor_type;location;lat;lon;timestamp;temperature;humidity
35381;DHT22;21486;51.916;8.378;2023-04-25T00:01:35;6.80;97.90
35381;DHT22;21486;51.916;8.378;2023-04-25T00:04:02;6.80;98.00
35381;DHT22;21486;51.916;8.378;2023-04-25T00:06:29;6.80;98.00
35381;DHT22;21486;51.916;8.378;2023-04-25T00:08:57;6.80;98.40
35381;DHT22;21486;51.916;8.378;2023-04-25T00:11:23;6.70;98.40
35381;DHT22;21486;51.916;8.378;2023-04-25T00:13:49;6.80;98.50
35381;DHT22;21486;51.916;8.378;2023-04-25T00:16:16;6.80;98.30
35381;DHT22;21486;51.916;8.378;2023-04-25T00:18:42;6.90;98.30
35381;DHT22;21486;51.916;8.378;2023-04-25T00:21:08;6.80;98.30
35381;DHT22;21486;51.916;8.378;2023-04-25T00:23:33;6.90;98.80
35381;DHT22;21486;51.916;8.378;2023-04-25T00:26:01;6.90;98.50
35381;DHT22;21486;51.916;8.378;2023-04-25T00:28:27;7.00;98.30
35381;DHT22;21486;51.916;8.378;2023-04-25T00:33:04;6.90;98.60
35381;DHT22;21486;51.916;8.378;2023-04-25T00:35:29;6.90;99.00
35381;DHT22;21486;51.916;8.378;2023-04-25T00:37:55;6.90;99.20
35381;DHT22;21486;51.916;8.378;2023-04-25T00:40:21;6.90;99.00
35381;DHT22;21486;51.916;8.378;2023-04-25T00:42:47;6.80;99.30
35381;DHT22;21486;51.916;8.378;2023-04-25T00:45:13;6.90;99.50
35381;DHT22;21486;51.916;8.378;2023-04-25T00:47:41;6.90;99.20
35381;DHT22;21486;51.916;8.378;2023-04-25T00:50:07;6.80;99.30
35381;DHT22;21486;51.916;8.378;2023-04-25T00:52:33;6.70;99.80
35381;DHT22;21486;51.916;8.378;2023-04-25T00:54:59;6.80;99.70
35381;DHT22;21486;51.916;8.378;2023-04-25T00:57:25;6.80;99.90
35381;DHT22;21486;51.916;8.378;2023-04-25T00:59:51;6.80;99.90
35381;DHT22;21486;51.916;8.378;2023-04-25T01:02:17;6.70;99.90
35381;DHT22;21486;51.916;8.378;2023-04-25T01:04:43;6.70;99.90
35381;DHT22;21486;51.916;8.378;2023-04-25T01:07:09;6.70;99.90
35381;DHT22;21486;51.916;8.378;2023-04-25T01:09:35;6.60;99.90
35381;DHT22;21486;51.916;8.378;2023-04-25T01:12:01;6.60;99.90
35381;DHT22;21486;51.916;8.378;2023-04-25T01:14:28;6.60;99.90
35381;DHT22;21486;51.916;8.378;2023-04-25T01:16:54;6.60;99.90
35381;DHT22;21486;51.916;8.378;2023-04-25T01:19:20;6.60;99.90
35381;DHT22;21486;51.916;8.378;2023-04-25T01:21:46;6.60;99.90
35381;DHT22;21486;51.916;8.378;2023-04-25T01:24:12;6.60;99.90
35381;DHT22;21486;51.916;8.378;2023-04-25T01:26:38;6.50;99.90
35381;DHT22;21486;51.916;8.378;2023-04-25T01:29:05;6.50;99.90
35381;DHT22;21486;51.916;8.378;2023-04-25T01:31:32;6.50;99.90
35381;DHT22;21486;51.916;8.378;2023-04-25T01:33:58;6.60;99.90
35381;DHT22;21486;51.916;8.378;2023-04-25T01:36:23;6.60;99.90
35381;DHT22;21486;51.916;8.378;2023-04-25T01:38:49;6.50;99.90
35381;DHT22;21486;51.916;8.378;2023-04-25T01:41:15;6.60;99.90
35381;DHT22;21486;51.916;8.378;2023-04-25T01:43:43;6.60;99.90
35381;DHT22;21486;51.916;8.378;2023-04-25T01:46:09;6.50;99.90
35381;DHT22;21486;51.916;8.378;2023-04-25T01:48:35;6.60;99.90
35381;DHT22;21486;51.916;8.378;2023-04-25T01:51:01;6.50;99.90
35381;DHT22;21486;51.916;8.378;2023-04-25T01:53:27;6.40;99.90
35381;DHT22;21486;51.916;8.378;2023-04-25T01:55:52;6.40;99.90
35381;DHT22;21486;51.916;8.378;2023-04-25T01:58:18;6.30;99.90
35381;DHT22;21486;51.916;8.378;2023-04-25T02:00:43;6.40;99.90
35381;DHT22;21486;51.916;8.378;2023-04-25T02:03:09;6.40;99.90
35381;DHT22;21486;51.916;8.378;2023-04-25T02:05:36;6.30;99.90
35381;DHT22;21486;51.916;8.378;2023-04-25T02:08:04;6.30;99.90
35381;DHT22;21486;51.916;8.378;2023-04-25T02:10:29;6.40;99.90
35381;DHT22;21486;51.916;8.378;2023-04-25T02:12:57;6.40;99.90
35381;DHT22;21486;51.916;8.378;2023-04-25T02:15:22;6.40;99.90
35381;DHT22;21486;51.916;8.378;2023-04-25T02:17:48;6.30;99.90
35381;DHT22;21486;51.916;8.378;2023-04-25T02:20:14;6.40;99.90
35381;DHT22;21486;51.916;8.378;2023-04-25T02:22:41;6.60;99.90
35381;DHT22;21486;51.916;8.378;2023-04-25T02:25:07;6.60;99.90
35381;DHT22;21486;51.916;8.378;2023-04-25T02:27:34;6.50;99.90
35381;DHT22;21486;51.916;8.378;2023-04-25T02:30:00;6.50;99.90
35381;DHT22;21486;51.916;8.378;2023-04-25T02:32:26;6.40;99.90
35381;DHT22;21486;51.916;8.378;2023-04-25T02:34:52;6.40;99.90
35381;DHT22;21486;51.916;8.378;2023-04-25T02:37:17;6.40;99.90
35381;DHT22;21486;51.916;8.378;2023-04-25T02:39:43;6.40;99.90
35381;DHT22;21486;51.916;8.378;2023-04-25T02:42:08;6.30;99.90
35381;DHT22;21486;51.916;8.378;2023-04-25T02:44:34;6.30;99.90
35381;DHT22;21486;51.916;8.378;2023-04-25T02:47:00;6.30;99.90
35381;DHT22;21486;51.916;8.378;2023-04-25T02:49:25;6.30;99.90
35381;DHT22;21486;51.916;8.378;2023-04-25T02:51:51;6.30;99.90
35381;DHT22;21486;51.916;8.378;2023-04-25T02:54:16;6.30;99.90
35381;DHT22;21486;51.916;8.378;2023-04-25T02:56:42;6.20;99.90
35381;DHT22;21486;51.916;8.378;2023-04-25T02:59:07;6.20;99.90
35381;DHT22;21486;51.916;8.378;2023-04-25T03:01:33;6.20;99.90
35381;DHT22;21486;51.916;8.378;2023-04-25T03:03:58;6.20;99.90
35381;DHT22;21486;51.916;8.378;2023-04-25T03:06:24;6.30;99.90
35381;DHT22;21486;51.916;8.378;2023-04-25T03:08:49;6.20;99.90
35381;DHT22;21486;51.916;8.378;2023-04-25T03:11:15;6.20;99.90
35381;DHT22;21486;51.916;8.378;2023-04-25T03:13:41;6.20;99.90
35381;DHT22;21486;51.916;8.378;2023-04-25T03:16:06;6.40;99.90
35381;DHT22;21486;51.916;8.378;2023-04-25T03:18:32;6.30;99.90
35381;DHT22;21486;51.916;8.378;2023-04-25T03:20:58;6.30;99.90
35381;DHT22;21486;51.916;8.378;2023-04-25T03:23:23;6.40;99.90
35381;DHT22;21486;51.916;8.378;2023-04-25T03:25:49;6.40;99.90
35381;DHT22;21486;51.916;8.378;2023-04-25T03:28:14;6.50;99.90
35381;DHT22;21486;51.916;8.378;2023-04-25T03:30:40;6.50;99.90
35381;DHT22;21486;51.916;8.378;2023-04-25T03:33:05;6.50;99.90
35381;DHT22;21486;51.916;8.378;2023-04-25T03:35:31;6.50;99.90
35381;DHT22;21486;51.916;8.378;2023-04-25T03:37:56;6.50;99.90
35381;DHT22;21486;51.916;8.378;2023-04-25T03:40:22;6.50;99.90
35381;DHT22;21486;51.916;8.378;2023-04-25T03:42:48;6.60;99.90
35381;DHT22;21486;51.916;8.378;2023-04-25T03:45:13;6.50;99.90
35381;DHT22;21486;51.916;8.378;2023-04-25T03:47:39;6.50;99.90
35381;DHT22;21486;51.916;8.378;2023-04-25T03:50:05;6.50;99.90
35381;DHT22;21486;51.916;8.378;2023-04-25T03:52:30;6.40;99.90
35381;DHT22;21486;51.916;8.378;2023-04-25T03:54:56;6.40;99.90
35381;DHT22;21486;51.916;8.378;2023-04-25T03:57:21;6.50;99.90
35381;DHT22;21486;51.916;8.378;2023-04-25T03:59:47;6.50;99.90
35381;DHT22;21486;51.916;8.378;2023-04-25T04:02:13;6.50;99.90
35381;DHT22;21486;51.916;8.378;2023-04-25T04:04:38;6.30;99.90
35381;DHT22;21486;51.916;8.378;2023-04-25T04:07:04;6.50;99.90
35381;DHT22;21486;51.916;8.378;2023-04-25T04:09:29;6.40;99.90
35381;DHT22;21486;51.916;8.378;2023-04-25T04:11:55;6.50;99.90
35381;DHT22;21486;51.916;8.378;2023-04-25T04:14:21;6.50;99.90
35381;DHT22;21486;51.916;8.378;2023-04-25T04:16:46;6.50;99.90
35381;DHT22;21486;51.916;8.378;2023-04-25T04:19:12;6.50;99.90
35381;DHT22;21486;51.916;8.378;2023-04-25T04:21:37;6.40;99.90
35381;DHT22;21486;51.916;8.378;2023-04-25T04:24:03;6.50;99.90
35381;DHT22;21486;51.916;8.378;2023-04-25T04:26:29;6.50;99.90
35381;DHT22;21486;51.916;8.378;2023-04-25T04:28:54;6.50;99.90
35381;DHT22;21486;51.916;8.378;2023-04-25T04:31:21;6.60;99.90
35381;DHT22;21486;51.916;8.378;2023-04-25T04:33:46;6.60;99.90
35381;DHT22;21486;51.916;8.378;2023-04-25T04:36:12;6.50;99.90
35381;DHT22;21486;51.916;8.378;2023-04-25T04:38:38;6.60;99.90
35381;DHT22;21486;51.916;8.378;2023-04-25T04:41:05;6.60;99.90
35381;DHT22;21486;51.916;8.378;2023-04-25T04:43:31;6.50;99.90
35381;DHT22;21486;51.916;8.378;2023-04-25T04:46:00;6.50;99.90
35381;DHT22;21486;51.916;8.378;2023-04-25T04:48:25;6.50;99.90
35381;DHT22;21486;51.916;8.378;2023-04-25T04:50:51;6.50;99.90
35381;DHT22;21486;51.916;8.378;2023-04-25T04:53:17;6.40;99.90
35381;DHT22;21486;51.916;8.378;2023-04-25T04:55:42;6.40;99.90
35381;DHT22;21486;51.916;8.378;2023-04-25T04:58:08;6.40;99.90
35381;DHT22;21486;51.916;8.378;2023-04-25T05:00:34;6.50;99.90
35381;DHT22;21486;51.916;8.378;2023-04-25T05:02:59;6.40;99.90
35381;DHT22;21486;51.916;8.378;2023-04-25T05:05:25;6.30;99.90
35381;DHT22;21486;51.916;8.378;2023-04-25T05:07:51;6.30;99.90
35381;DHT22;21486;51.916;8.378;2023-04-25T05:10:20;6.30;99.90
35381;DHT22;21486;51.916;8.378;2023-04-25T05:12:46;6.30;99.90
35381;DHT22;21486;51.916;8.378;2023-04-25T05:15:11;6.40;99.90
35381;DHT22;21486;51.916;8.378;2023-04-25T05:17:37;6.40;99.90
35381;DHT22;21486;51.916;8.378;2023-04-25T05:20:05;6.40;99.90
35381;DHT22;21486;51.916;8.378;2023-04-25T05:22:31;6.60;99.90
35381;DHT22;21486;51.916;8.378;2023-04-25T05:24:56;6.70;99.90
35381;DHT22;21486;51.916;8.378;2023-04-25T05:27:22;6.70;99.90
35381;DHT22;21486;51.916;8.378;2023-04-25T05:29:47;6.60;99.90
35381;DHT22;21486;51.916;8.378;2023-04-25T05:32:13;6.60;99.90
35381;DHT22;21486;51.916;8.378;2023-04-25T05:34:38;6.50;99.90
35381;DHT22;21486;51.916;8.378;2023-04-25T05:37:04;6.60;99.90
35381;DHT22;21486;51.916;8.378;2023-04-25T05:39:30;6.70;99.90
35381;DHT22;21486;51.916;8.378;2023-04-25T05:41:55;6.90;99.90
35381;DHT22;21486;51.916;8.378;2023-04-25T05:44:21;6.90;99.90
35381;DHT22;21486;51.916;8.378;2023-04-25T05:46:46;7.00;99.90
35381;DHT22;21486;51.916;8.378;2023-04-25T05:49:12;7.10;99.90
35381;DHT22;21486;51.916;8.378;2023-04-25T05:51:38;7.10;99.90
35381;DHT22;21486;51.916;8.378;2023-04-25T05:54:03;7.10;99.90
35381;DHT22;21486;51.916;8.378;2023-04-25T05:56:29;7.20;99.90
35381;DHT22;21486;51.916;8.378;2023-04-25T05:58:55;7.30;99.90
35381;DHT22;21486;51.916;8.378;2023-04-25T06:01:21;7.40;99.90
35381;DHT22;21486;51.916;8.378;2023-04-25T06:03:47;7.40;99.90
35381;DHT22;21486;51.916;8.378;2023-04-25T06:06:12;7.40;99.70
35381;DHT22;21486;51.916;8.378;2023-04-25T06:08:38;7.60;99.10
35381;DHT22;21486;51.916;8.378;2023-04-25T06:11:04;7.70;99.60
35381;DHT22;21486;51.916;8.378;2023-04-25T06:13:30;7.60;97.80
35381;DHT22;21486;51.916;8.378;2023-04-25T06:15:55;7.50;98.90
35381;DHT22;21486;51.916;8.378;2023-04-25T06:18:21;7.90;97.70
35381;DHT22;21486;51.916;8.378;2023-04-25T06:20:46;8.20;96.50
35381;DHT22;21486;51.916;8.378;2023-04-25T06:23:12;8.20;95.90
35381;DHT22;21486;51.916;8.378;2023-04-25T06:25:37;8.10;96.50
35381;DHT22;21486;51.916;8.378;2023-04-25T06:28:03;8.10;96.50
35381;DHT22;21486;51.916;8.378;2023-04-25T06:30:28;7.70;95.90
35381;DHT22;21486;51.916;8.378;2023-04-25T06:32:55;7.90;96.20
35381;DHT22;21486;51.916;8.378;2023-04-25T06:35:20;8.00;95.10
35381;DHT22;21486;51.916;8.378;2023-04-25T06:37:46;8.10;94.90
35381;DHT22;21486;51.916;8.378;2023-04-25T06:40:11;8.20;93.40
35381;DHT22;21486;51.916;8.378;2023-04-25T06:42:37;8.10;94.90
35381;DHT22;21486;51.916;8.378;2023-04-25T06:45:03;8.10;95.40
35381;DHT22;21486;51.916;8.378;2023-04-25T06:47:28;7.80;94.40
35381;DHT22;21486;51.916;8.378;2023-04-25T06:49:55;7.90;94.70
35381;DHT22;21486;51.916;8.378;2023-04-25T06:52:20;8.00;94.40
35381;DHT22;21486;51.916;8.378;2023-04-25T06:54:46;8.00;93.80
35381;DHT22;21486;51.916;8.378;2023-04-25T06:57:12;8.20;93.50
35381;DHT22;21486;51.916;8.378;2023-04-25T06:59:37;8.10;93.10
35381;DHT22;21486;51.916;8.378;2023-04-25T07:02:03;8.40;92.70
35381;DHT22;21486;51.916;8.378;2023-04-25T07:04:29;8.50;92.70
35381;DHT22;21486;51.916;8.378;2023-04-25T07:06:55;8.70;92.00
35381;DHT22;21486;51.916;8.378;2023-04-25T07:09:21;8.80;92.10
35381;DHT22;21486;51.916;8.378;2023-04-25T07:11:47;8.90;91.60
35381;DHT22;21486;51.916;8.378;2023-04-25T07:14:12;8.90;90.30
35381;DHT22;21486;51.916;8.378;2023-04-25T07:16:38;8.90;90.60
35381;DHT22;21486;51.916;8.378;2023-04-25T07:19:03;9.10;89.50
35381;DHT22;21486;51.916;8.378;2023-04-25T07:21:29;9.10;86.80
35381;DHT22;21486;51.916;8.378;2023-04-25T07:23:56;9.00;88.60
35381;DHT22;21486;51.916;8.378;2023-04-25T07:26:22;9.00;89.40
35381;DHT22;21486;51.916;8.378;2023-04-25T07:28:47;9.00;88.20
35381;DHT22;21486;51.916;8.378;2023-04-25T07:31:16;8.90;85.90
35381;DHT22;21486;51.916;8.378;2023-04-25T07:33:46;9.20;86.00
35381;DHT22;21486;51.916;8.378;2023-04-25T07:36:12;9.20;83.30
35381;DHT22;21486;51.916;8.378;2023-04-25T07:38:38;9.30;82.30
35381;DHT22;21486;51.916;8.378;2023-04-25T07:41:04;9.30;83.20
35381;DHT22;21486;51.916;8.378;2023-04-25T07:43:30;9.10;85.40
35381;DHT22;21486;51.916;8.378;2023-04-25T07:45:56;8.90;83.60
35381;DHT22;21486;51.916;8.378;2023-04-25T07:48:22;9.00;86.80
35381;DHT22;21486;51.916;8.378;2023-04-25T07:50:48;9.10;85.10
35381;DHT22;21486;51.916;8.378;2023-04-25T07:53:13;9.50;82.40
35381;DHT22;21486;51.916;8.378;2023-04-25T07:55:39;9.40;82.60
35381;DHT22;21486;51.916;8.378;2023-04-25T07:58:08;9.20;81.10
35381;DHT22;21486;51.916;8.378;2023-04-25T08:00:34;9.30;81.30
35381;DHT22;21486;51.916;8.378;2023-04-25T08:03:00;9.60;78.00
35381;DHT22;21486;51.916;8.378;2023-04-25T08:05:25;9.60;78.40
35381;DHT22;21486;51.916;8.378;2023-04-25T08:07:51;9.90;77.40
35381;DHT22;21486;51.916;8.378;2023-04-25T08:10:16;10.10;72.90
35381;DHT22;21486;51.916;8.378;2023-04-25T08:12:42;10.10;73.40
35381;DHT22;21486;51.916;8.378;2023-04-25T08:15:08;10.10;74.20
35381;DHT22;21486;51.916;8.378;2023-04-25T08:17:34;10.30;73.40
35381;DHT22;21486;51.916;8.378;2023-04-25T08:19:59;10.00;76.00
35381;DHT22;21486;51.916;8.378;2023-04-25T08:22:25;10.10;74.60
35381;DHT22;21486;51.916;8.378;2023-04-25T08:24:50;10.40;71.20
35381;DHT22;21486;51.916;8.378;2023-04-25T08:27:17;10.50;72.70
35381;DHT22;21486;51.916;8.378;2023-04-25T08:29:43;10.70;68.30
35381;DHT22;21486;51.916;8.378;2023-04-25T08:32:08;11.00;69.60
35381;DHT22;21486;51.916;8.378;2023-04-25T08:34:34;10.70;66.10
35381;DHT22;21486;51.916;8.378;2023-04-25T08:37:00;11.00;69.10
35381;DHT22;21486;51.916;8.378;2023-04-25T08:39:25;11.00;63.50
35381;DHT22;21486;51.916;8.378;2023-04-25T08:41:51;11.00;65.30
35381;DHT22;21486;51.916;8.378;2023-04-25T08:44:19;11.00;63.50
35381;DHT22;21486;51.916;8.378;2023-04-25T08:46:46;11.20;63.50
35381;DHT22;21486;51.916;8.378;2023-04-25T08:49:16;10.90;65.40
35381;DHT22;21486;51.916;8.378;2023-04-25T08:51:46;10.50;64.80
35381;DHT22;21486;51.916;8.378;2023-04-25T08:54:13;10.60;68.00
35381;DHT22;21486;51.916;8.378;2023-04-25T08:56:48;10.50;67.30
35381;DHT22;21486;51.916;8.378;2023-04-25T08:59:14;10.80;68.50
35381;DHT22;21486;51.916;8.378;2023-04-25T09:01:40;10.90;64.90
35381;DHT22;21486;51.916;8.378;2023-04-25T09:04:06;11.40;64.40
35381;DHT22;21486;51.916;8.378;2023-04-25T09:06:32;11.60;59.70
35381;DHT22;21486;51.916;8.378;2023-04-25T09:09:06;11.70;60.40
35381;DHT22;21486;51.916;8.378;2023-04-25T09:11:33;13.60;57.60
35381;DHT22;21486;51.916;8.378;2023-04-25T09:14:20;14.10;53.90
35381;DHT22;21486;51.916;8.378;2023-04-25T09:17:01;14.70;52.60
35381;DHT22;21486;51.916;8.378;2023-04-25T09:19:33;14.10;50.90
35381;DHT22;21486;51.916;8.378;2023-04-25T09:22:02;13.10;53.30
35381;DHT22;21486;51.916;8.378;2023-04-25T09:24:35;12.70;55.30
35381;DHT22;21486;51.916;8.378;2023-04-25T09:27:05;12.50;55.90
35381;DHT22;21486;51.916;8.378;2023-04-25T09:29:35;12.00;57.60
35381;DHT22;21486;51.916;8.378;2023-04-25T09:34:40;14.30;51.70
35381;DHT22;21486;51.916;8.378;2023-04-25T09:37:10;14.20;52.20
35381;DHT22;21486;51.916;8.378;2023-04-25T09:39:39;13.60;50.50
35381;DHT22;21486;51.916;8.378;2023-04-25T09:42:05;12.60;53.30
35381;DHT22;21486;51.916;8.378;2023-04-25T09:44:31;12.00;56.30
35381;DHT22;21486;51.916;8.378;2023-04-25T09:46:56;12.80;54.30
35381;DHT22;21486;51.916;8.378;2023-04-25T09:49:22;13.30;52.00
35381;DHT22;21486;51.916;8.378;2023-04-25T09:51:57;13.60;51.00
35381;DHT22;21486;51.916;8.378;2023-04-25T09:54:24;13.00;52.40
35381;DHT22;21486;51.916;8.378;2023-04-25T09:56:52;11.80;54.90
35381;DHT22;21486;51.916;8.378;2023-04-25T09:59:21;11.20;55.30
35381;DHT22;21486;51.916;8.378;2023-04-25T10:01:51;11.10;56.10
35381;DHT22;21486;51.916;8.378;2023-04-25T10:04:20;11.10;57.40
35381;DHT22;21486;51.916;8.378;2023-04-25T10:06:48;11.20;55.90
35381;DHT22;21486;51.916;8.378;2023-04-25T10:09:15;10.90;57.40
35381;DHT22;21486;51.916;8.378;2023-04-25T10:11:41;10.50;57.80
35381;DHT22;21486;51.916;8.378;2023-04-25T10:14:06;10.40;59.00
35381;DHT22;21486;51.916;8.378;2023-04-25T10:16:32;10.30;59.60
35381;DHT22;21486;51.916;8.378;2023-04-25T10:18:58;10.30;59.20
35381;DHT22;21486;51.916;8.378;2023-04-25T10:21:24;10.00;62.70
35381;DHT22;21486;51.916;8.378;2023-04-25T10:23:53;9.70;60.70
35381;DHT22;21486;51.916;8.378;2023-04-25T10:26:19;9.80;61.90
35381;DHT22;21486;51.916;8.378;2023-04-25T10:28:59;10.10;63.20
35381;DHT22;21486;51.916;8.378;2023-04-25T10:31:25;10.40;59.40
35381;DHT22;21486;51.916;8.378;2023-04-25T10:33:51;10.70;60.30
35381;DHT22;21486;51.916;8.378;2023-04-25T10:36:21;10.70;60.20
35381;DHT22;21486;51.916;8.378;2023-04-25T10:38:50;10.80;59.20
35381;DHT22;21486;51.916;8.378;2023-04-25T10:41:18;11.30;58.70
35381;DHT22;21486;51.916;8.378;2023-04-25T10:43:47;11.90;56.90
35381;DHT22;21486;51.916;8.378;2023-04-25T10:46:23;12.40;54.70
35381;DHT22;21486;51.916;8.378;2023-04-25T10:48:53;13.80;51.20
35381;DHT22;21486;51.916;8.378;2023-04-25T10:51:23;14.30;49.20
35381;DHT22;21486;51.916;8.378;2023-04-25T10:54:01;14.50;49.00
35381;DHT22;21486;51.916;8.378;2023-04-25T10:56:37;14.50;49.20
35381;DHT22;21486;51.916;8.378;2023-04-25T10:59:19;15.40;48.30
35381;DHT22;21486;51.916;8.378;2023-04-25T11:01:46;14.60;49.10
35381;DHT22;21486;51.916;8.378;2023-04-25T11:04:24;13.90;50.50
35381;DHT22;21486;51.916;8.378;2023-04-25T11:09:29;12.40;53.40
35381;DHT22;21486;51.916;8.378;2023-04-25T11:11:56;12.90;53.90
35381;DHT22;21486;51.916;8.378;2023-04-25T11:14:22;13.20;50.90
35381;DHT22;21486;51.916;8.378;2023-04-25T11:16:52;12.70;51.60
35381;DHT22;21486;51.916;8.378;2023-04-25T11:19:20;11.70;55.20
35381;DHT22;21486;51.916;8.378;2023-04-25T11:21:45;11.40;56.40
35381;DHT22;21486;51.916;8.378;2023-04-25T11:24:11;11.60;58.40
35381;DHT22;21486;51.916;8.378;2023-04-25T11:26:37;11.50;57.10
35381;DHT22;21486;51.916;8.378;2023-04-25T11:29:03;11.20;55.70
35381;DHT22;21486;51.916;8.378;2023-04-25T11:31:29;11.30;57.10
35381;DHT22;21486;51.916;8.378;2023-04-25T11:33:57;11.60;56.60
35381;DHT22;21486;51.916;8.378;2023-04-25T11:36:23;12.20;55.80
35381;DHT22;21486;51.916;8.378;2023-04-25T11:38:51;12.70;52.70
35381;DHT22;21486;51.916;8.378;2023-04-25T11:41:17;12.70;52.00
35381;DHT22;21486;51.916;8.378;2023-04-25T11:43:43;12.80;51.60
35381;DHT22;21486;51.916;8.378;2023-04-25T11:46:09;12.40;52.60
35381;DHT22;21486;51.916;8.378;2023-04-25T11:48:41;12.40;53.20
35381;DHT22;21486;51.916;8.378;2023-04-25T11:51:07;13.00;51.20
35381;DHT22;21486;51.916;8.378;2023-04-25T11:53:33;13.20;51.10
35381;DHT22;21486;51.916;8.378;2023-04-25T11:55:59;13.10;52.70
35381;DHT22;21486;51.916;8.378;2023-04-25T11:58:26;13.20;50.70
35381;DHT22;21486;51.916;8.378;2023-04-25T12:00:52;13.60;50.40
35381;DHT22;21486;51.916;8.378;2023-04-25T12:03:18;13.40;50.30
35381;DHT22;21486;51.916;8.378;2023-04-25T12:05:45;13.00;51.20
35381;DHT22;21486;51.916;8.378;2023-04-25T12:08:15;12.10;52.90
35381;DHT22;21486;51.916;8.378;2023-04-25T12:10:42;13.20;52.20
35381;DHT22;21486;51.916;8.378;2023-04-25T12:13:22;13.70;50.30
35381;DHT22;21486;51.916;8.378;2023-04-25T12:15:48;14.00;50.60
35381;DHT22;21486;51.916;8.378;2023-04-25T12:18:14;14.20;49.90
35381;DHT22;21486;51.916;8.378;2023-04-25T12:20:39;14.20;49.90
35381;DHT22;21486;51.916;8.378;2023-04-25T12:23:07;14.30;49.10
35381;DHT22;21486;51.916;8.378;2023-04-25T12:25:41;13.60;50.10
35381;DHT22;21486;51.916;8.378;2023-04-25T12:28:19;13.00;51.40
35381;DHT22;21486;51.916;8.378;2023-04-25T12:31:01;13.00;51.10
35381;DHT22;21486;51.916;8.378;2023-04-25T12:33:32;12.80;53.80
35381;DHT22;21486;51.916;8.378;2023-04-25T12:35:58;12.60;52.30
35381;DHT22;21486;51.916;8.378;2023-04-25T12:38:29;12.80;51.60
35381;DHT22;21486;51.916;8.378;2023-04-25T12:40:56;12.60;49.40
35381;DHT22;21486;51.916;8.378;2023-04-25T12:43:22;12.60;52.10
35381;DHT22;21486;51.916;8.378;2023-04-25T12:45:52;12.70;52.60
35381;DHT22;21486;51.916;8.378;2023-04-25T12:48:19;13.20;52.60
35381;DHT22;21486;51.916;8.378;2023-04-25T12:50:45;13.70;51.50
35381;DHT22;21486;51.916;8.378;2023-04-25T12:53:13;13.30;53.70
35381;DHT22;21486;51.916;8.378;2023-04-25T12:55:38;12.70;51.80
35381;DHT22;21486;51.916;8.378;2023-04-25T12:58:04;12.40;51.70
35381;DHT22;21486;51.916;8.378;2023-04-25T13:00:30;12.50;52.60
35381;DHT22;21486;51.916;8.378;2023-04-25T13:02:56;12.30;52.40
35381;DHT22;21486;51.916;8.378;2023-04-25T13:05:22;12.20;56.10
35381;DHT22;21486;51.916;8.378;2023-04-25T13:07:48;12.50;55.30
35381;DHT22;21486;51.916;8.378;2023-04-25T13:10:13;12.60;54.90
35381;DHT22;21486;51.916;8.378;2023-04-25T13:12:39;12.90;53.20
35381;DHT22;21486;51.916;8.378;2023-04-25T13:15:05;13.10;52.40
35381;DHT22;21486;51.916;8.378;2023-04-25T13:17:30;13.10;51.20
35381;DHT22;21486;51.916;8.378;2023-04-25T13:19:56;13.30;52.90
35381;DHT22;21486;51.916;8.378;2023-04-25T13:22:21;13.20;50.70
35381;DHT22;21486;51.916;8.378;2023-04-25T13:24:47;13.10;50.80
35381;DHT22;21486;51.916;8.378;2023-04-25T13:27:13;12.70;52.30
35381;DHT22;21486;51.916;8.378;2023-04-25T13:29:38;12.70;51.10
35381;DHT22;21486;51.916;8.378;2023-04-25T13:32:06;12.40;56.60
35381;DHT22;21486;51.916;8.378;2023-04-25T13:34:32;11.90;58.60
35381;DHT22;21486;51.916;8.378;2023-04-25T13:36:59;11.60;57.90
35381;DHT22;21486;51.916;8.378;2023-04-25T13:39:25;11.20;57.00
35381;DHT22;21486;51.916;8.378;2023-04-25T13:41:51;10.90;59.60
35381;DHT22;21486;51.916;8.378;2023-04-25T13:44:16;10.70;59.40
35381;DHT22;21486;51.916;8.378;2023-04-25T13:46:42;10.60;58.70
35381;DHT22;21486;51.916;8.378;2023-04-25T13:49:08;10.70;58.70
35381;DHT22;21486;51.916;8.378;2023-04-25T13:51:33;11.10;59.20
35381;DHT22;21486;51.916;8.378;2023-04-25T13:53:59;11.20;57.20
35381;DHT22;21486;51.916;8.378;2023-04-25T13:56:24;11.30;57.80
35381;DHT22;21486;51.916;8.378;2023-04-25T13:58:51;11.20;57.20
35381;DHT22;21486;51.916;8.378;2023-04-25T14:01:19;11.20;57.00
35381;DHT22;21486;51.916;8.378;2023-04-25T14:03:46;11.30;56.70
35381;DHT22;21486;51.916;8.378;2023-04-25T14:06:11;11.10;56.80
35381;DHT22;21486;51.916;8.378;2023-04-25T14:08:38;10.80;55.90
35381;DHT22;21486;51.916;8.378;2023-04-25T14:11:04;10.70;57.00
35381;DHT22;21486;51.916;8.378;2023-04-25T14:13:30;10.60;59.10
35381;DHT22;21486;51.916;8.378;2023-04-25T14:15:55;10.70;59.10
35381;DHT22;21486;51.916;8.378;2023-04-25T14:18:21;10.40;59.80
35381;DHT22;21486;51.916;8.378;2023-04-25T14:20:46;10.50;59.80
35381;DHT22;21486;51.916;8.378;2023-04-25T14:23:12;10.60;59.10
35381;DHT22;21486;51.916;8.378;2023-04-25T14:25:38;10.50;59.30
35381;DHT22;21486;51.916;8.378;2023-04-25T14:28:03;10.60;59.70
35381;DHT22;21486;51.916;8.378;2023-04-25T14:30:29;10.50;60.80
35381;DHT22;21486;51.916;8.378;2023-04-25T14:32:54;10.00;65.90
35381;DHT22;21486;51.916;8.378;2023-04-25T14:35:20;9.70;71.10
35381;DHT22;21486;51.916;8.378;2023-04-25T14:37:46;9.40;78.70
35381;DHT22;21486;51.916;8.378;2023-04-25T14:40:13;8.90;82.00
35381;DHT22;21486;51.916;8.378;2023-04-25T14:42:40;8.80;83.50
35381;DHT22;21486;51.916;8.378;2023-04-25T14:45:06;8.50;82.80
35381;DHT22;21486;51.916;8.378;2023-04-25T14:47:36;8.10;85.80
35381;DHT22;21486;51.916;8.378;2023-04-25T14:50:02;8.10;87.60
35381;DHT22;21486;51.916;8.378;2023-04-25T14:52:28;8.00;89.20
35381;DHT22;21486;51.916;8.378;2023-04-25T14:54:53;7.90;86.00
35381;DHT22;21486;51.916;8.378;2023-04-25T14:57:19;8.00;86.20
35381;DHT22;21486;51.916;8.378;2023-04-25T14:59:44;8.00;86.30
35381;DHT22;21486;51.916;8.378;2023-04-25T15:02:11;8.20;83.70
35381;DHT22;21486;51.916;8.378;2023-04-25T15:04:37;8.40;88.20
35381;DHT22;21486;51.916;8.378;2023-04-25T15:07:02;8.60;85.50
35381;DHT22;21486;51.916;8.378;2023-04-25T15:09:29;9.10;85.60
35381;DHT22;21486;51.916;8.378;2023-04-25T15:11:54;9.50;79.40
35381;DHT22;21486;51.916;8.378;2023-04-25T15:14:20;9.50;81.00
35381;DHT22;21486;51.916;8.378;2023-04-25T15:16:45;9.70;80.90
35381;DHT22;21486;51.916;8.378;2023-04-25T15:19:11;9.90;79.90
35381;DHT22;21486;51.916;8.378;2023-04-25T15:21:37;10.00;77.10
35381;DHT22;21486;51.916;8.378;2023-04-25T15:24:02;10.30;75.50
35381;DHT22;21486;51.916;8.378;2023-04-25T15:26:28;10.70;72.70
35381;DHT22;21486;51.916;8.378;2023-04-25T15:28:53;11.00;72.80
35381;DHT22;21486;51.916;8.378;2023-04-25T15:31:19;11.10;69.90
35381;DHT22;21486;51.916;8.378;2023-04-25T15:33:45;11.10;70.00
35381;DHT22;21486;51.916;8.378;2023-04-25T15:36:11;10.90;68.00
35381;DHT22;21486;51.916;8.378;2023-04-25T15:38:36;10.50;71.20
35381;DHT22;21486;51.916;8.378;2023-04-25T15:41:02;10.10;69.50
35381;DHT22;21486;51.916;8.378;2023-04-25T15:43:28;9.90;69.00